sensor_id;sensor_type;location;lat;lon;timestamp;P1;durP1;ratioP1;P2;durP2;ratioP2
68178;SDS011;69812;42.632;23.440;2023-07-09T00:02:20;4.47;;;3.13;;
68178;SDS011;69812;42.632;23.440;2023-07-09T00:04:51;6.43;;;2.75;;
68178;SDS011;69812;42.632;23.440;2023-07-09T00:07:27;3.97;;;2.63;;
68178;SDS011;69812;42.632;23.440;2023-07-09T00:10:03;4.82;;;3.00;;
68178;SDS011;69812;42.632;23.440;2023-07-09T00:12:28;6.30;;;3.05;;
68178;SDS011;69812;42.632;23.440;2023-07-09T00:14:54;6.30;;;3.17;;
68178;SDS011;69812;42.632;23.440;2023-07-09T00:17:26;5.28;;;3.10;;
68178;SDS011;69812;42.632;23.440;2023-07-09T00:19:54;6.80;;;3.42;;
68178;SDS011;69812;42.632;23.440;2023-07-09T00:22:19;6.72;;;3.38;;
68178;SDS011;69812;42.632;23.440;2023-07-09T00:24:49;5.53;;;3.05;;
68178;SDS011;69812;42.632;23.440;2023-07-09T00:27:18;6.13;;;3.40;;
68178;SDS011;69812;42.632;23.440;2023-07-09T00:29:46;6.40;;;3.25;;
68178;SDS011;69812;42.632;23.440;2023-07-09T00:32:12;8.45;;;3.85;;
68178;SDS011;69812;42.632;23.440;2023-07-09T00:34:44;6.10;;;3.50;;
68178;SDS011;69812;42.632;23.440;2023-07-09T00:37:19;5.85;;;3.50;;
68178;SDS011;69812;42.632;23.440;2023-07-09T00:39:50;6.15;;;3.63;;
68178;SDS011;69812;42.632;23.440;2023-07-09T00:42:17;4.32;;;3.15;;
68178;SDS011;69812;42.632;23.440;2023-07-09T00:44:45;7.78;;;3.97;;
68178;SDS011;69812;42.632;23.440;2023-07-09T00:50:21;5.68;;;3.42;;
68178;SDS011;69812;42.632;23.440;2023-07-09T00:52:54;7.57;;;3.97;;
68178;SDS011;69812;42.632;23.440;2023-07-09T00:55:24;6.55;;;3.72;;
68178;SDS011;69812;42.632;23.440;2023-07-09T00:57:54;6.25;;;3.97;;
68178;SDS011;69812;42.632;23.440;2023-07-09T01:00:25;6.03;;;3.63;;
68178;SDS011;69812;42.632;23.440;2023-07-09T01:03:11;6.28;;;3.47;;
68178;SDS011;69812;42.632;23.440;2023-07-09T01:05:52;6.03;;;3.60;;
68178;SDS011;69812;42.632;23.440;2023-07-09T01:08:20;5.68;;;3.47;;
68178;SDS011;69812;42.632;23.440;2023-07-09T01:10:45;6.97;;;4.10;;
68178;SDS011;69812;42.632;23.440;2023-07-09T01:13:16;6.68;;;3.70;;
68178;SDS011;69812;42.632;23.440;2023-07-09T01:15:44;6.85;;;4.05;;
68178;SDS011;69812;42.632;23.440;2023-07-09T01:18:11;7.50;;;3.75;;
68178;SDS011;69812;42.632;23.440;2023-07-09T01:20:39;7.88;;;4.25;;
68178;SDS011;69812;42.632;23.440;2023-07-09T01:23:14;5.60;;;3.97;;
68178;SDS011;69812;42.632;23.440;2023-07-09T01:25:46;6.28;;;4.45;;
68178;SDS011;69812;42.632;23.440;2023-07-09T01:28:20;7.22;;;4.90;;
68178;SDS011;69812;42.632;23.440;2023-07-09T01:30:46;8.82;;;4.97;;
68178;SDS011;69812;42.632;23.440;2023-07-09T01:33:19;8.90;;;4.57;;
68178;SDS011;69812;42.632;23.440;2023-07-09T01:35:46;7.75;;;5.03;;
68178;SDS011;69812;42.632;23.440;2023-07-09T01:38:13;7.63;;;4.65;;
68178;SDS011;69812;42.632;23.440;2023-07-09T01:40:40;7.20;;;4.95;;
68178;SDS011;69812;42.632;23.440;2023-07-09T01:43:11;8.63;;;5.70;;
68178;SDS011;69812;42.632;23.440;2023-07-09T01:45:39;8.35;;;5.40;;
68178;SDS011;69812;42.632;23.440;2023-07-09T01:48:07;10.77;;;5.50;;
68178;SDS011;69812;42.632;23.440;2023-07-09T01:50:40;8.80;;;5.35;;
68178;SDS011;69812;42.632;23.440;2023-07-09T01:53:08;11.25;;;5.90;;
68178;SDS011;69812;42.632;23.440;2023-07-09T01:55:38;9.23;;;5.50;;
68178;SDS011;69812;42.632;23.440;2023-07-09T01:58:03;9.45;;;5.22;;
68178;SDS011;69812;42.632;23.440;2023-07-09T02:00:31;9.10;;;5.97;;
68178;SDS011;69812;42.632;23.440;2023-07-09T02:02:57;11.10;;;5.88;;
68178;SDS011;69812;42.632;23.440;2023-07-09T02:05:25;9.90;;;5.95;;
68178;SDS011;69812;42.632;23.440;2023-07-09T02:07:52;10.75;;;6.18;;
68178;SDS011;69812;42.632;23.440;2023-07-09T02:10:18;10.30;;;5.88;;
68178;SDS011;69812;42.632;23.440;2023-07-09T02:12:46;8.68;;;6.25;;
68178;SDS011;69812;42.632;23.440;2023-07-09T02:15:16;8.93;;;6.20;;
68178;SDS011;69812;42.632;23.440;2023-07-09T02:17:42;9.63;;;6.03;;
68178;SDS011;69812;42.632;23.440;2023-07-09T02:20:08;9.43;;;5.93;;
68178;SDS011;69812;42.632;23.440;2023-07-09T02:22:38;9.55;;;5.70;;
68178;SDS011;69812;42.632;23.440;2023-07-09T02:25:04;8.57;;;5.63;;
68178;SDS011;69812;42.632;23.440;2023-07-09T02:27:30;7.93;;;5.50;;
68178;SDS011;69812;42.632;23.440;2023-07-09T02:29:59;8.90;;;5.80;;
68178;SDS011;69812;42.632;23.440;2023-07-09T02:32:25;8.38;;;6.00;;
68178;SDS011;69812;42.632;23.440;2023-07-09T02:34:52;10.45;;;6.15;;
68178;SDS011;69812;42.632;23.440;2023-07-09T02:37:23;8.70;;;5.82;;
68178;SDS011;69812;42.632;23.440;2023-07-09T02:40:00;8.93;;;6.38;;
68178;SDS011;69812;42.632;23.440;2023-07-09T02:42:26;10.65;;;6.28;;
68178;SDS011;69812;42.632;23.440;2023-07-09T02:44:51;11.82;;;6.57;;
68178;SDS011;69812;42.632;23.440;2023-07-09T02:47:17;9.10;;;6.32;;
68178;SDS011;69812;42.632;23.440;2023-07-09T02:49:43;10.70;;;6.35;;
68178;SDS011;69812;42.632;23.440;2023-07-09T02:52:08;9.88;;;6.35;;
68178;SDS011;69812;42.632;23.440;2023-07-09T02:54:34;10.25;;;6.40;;
68178;SDS011;69812;42.632;23.440;2023-07-09T02:57:00;12.32;;;6.38;;
68178;SDS011;69812;42.632;23.440;2023-07-09T02:59:25;9.70;;;6.25;;
68178;SDS011;69812;42.632;23.440;2023-07-09T03:01:51;9.35;;;6.00;;
68178;SDS011;69812;42.632;23.440;2023-07-09T03:04:17;9.48;;;6.65;;
68178;SDS011;69812;42.632;23.440;2023-07-09T03:06:45;9.07;;;6.30;;
68178;SDS011;69812;42.632;23.440;2023-07-09T03:09:11;10.45;;;6.35;;
68178;SDS011;69812;42.632;23.440;2023-07-09T03:11:39;9.38;;;6.40;;
68178;SDS011;69812;42.632;23.440;2023-07-09T03:14:11;10.45;;;6.72;;
68178;SDS011;69812;42.632;23.440;2023-07-09T03:16:37;9.32;;;6.70;;
68178;SDS011;69812;42.632;23.440;2023-07-09T03:19:05;10.88;;;7.05;;
68178;SDS011;69812;42.632;23.440;2023-07-09T03:21:35;11.25;;;6.93;;
68178;SDS011;69812;42.632;23.440;2023-07-09T03:24:03;9.90;;;7.05;;
68178;SDS011;69812;42.632;23.440;2023-07-09T03:26:33;10.95;;;6.60;;
68178;SDS011;69812;42.632;23.440;2023-07-09T03:29:04;8.70;;;6.10;;
68178;SDS011;69812;42.632;23.440;2023-07-09T03:31:32;8.00;;;5.57;;
68178;SDS011;69812;42.632;23.440;2023-07-09T03:34:00;9.75;;;6.47;;
68178;SDS011;69812;42.632;23.440;2023-07-09T03:36:35;9.45;;;6.13;;
68178;SDS011;69812;42.632;23.440;2023-07-09T03:39:02;8.93;;;6.05;;
68178;SDS011;69812;42.632;23.440;2023-07-09T03:41:31;9.32;;;6.40;;
68178;SDS011;69812;42.632;23.440;2023-07-09T03:43:59;14.50;;;6.50;;
68178;SDS011;69812;42.632;23.440;2023-07-09T03:46:30;11.77;;;6.90;;
68178;SDS011;69812;42.632;23.440;2023-07-09T03:51:50;10.85;;;6.28;;
68178;SDS011;69812;42.632;23.440;2023-07-09T03:54:18;10.77;;;6.32;;
68178;SDS011;69812;42.632;23.440;2023-07-09T03:56:53;9.52;;;5.82;;
68178;SDS011;69812;42.632;23.440;2023-07-09T03:59:21;9.85;;;5.80;;
68178;SDS011;69812;42.632;23.440;2023-07-09T04:01:51;8.15;;;5.22;;
68178;SDS011;69812;42.632;23.440;2023-07-09T04:06:55;7.00;;;4.80;;
68178;SDS011;69812;42.632;23.440;2023-07-09T04:09:21;6.72;;;4.20;;
68178;SDS011;69812;42.632;23.440;2023-07-09T04:11:46;6.18;;;4.18;;
68178;SDS011;69812;42.632;23.440;2023-07-09T04:14:12;5.10;;;4.13;;
68178;SDS011;69812;42.632;23.440;2023-07-09T04:16:37;8.65;;;4.50;;
68178;SDS011;69812;42.632;23.440;2023-07-09T04:19:08;5.93;;;4.13;;
68178;SDS011;69812;42.632;23.440;2023-07-09T04:21:33;5.60;;;4.55;;
68178;SDS011;69812;42.632;23.440;2023-07-09T04:24:01;6.68;;;4.40;;
68178;SDS011;69812;42.632;23.440;2023-07-09T04:26:29;10.85;;;4.90;;
68178;SDS011;69812;42.632;23.440;2023-07-09T04:28:55;6.78;;;4.80;;
68178;SDS011;69812;42.632;23.440;2023-07-09T04:31:20;6.15;;;3.92;;
68178;SDS011;69812;42.632;23.440;2023-07-09T04:33:45;7.13;;;4.93;;
68178;SDS011;69812;42.632;23.440;2023-07-09T04:36:13;6.30;;;4.38;;
68178;SDS011;69812;42.632;23.440;2023-07-09T04:38:41;8.25;;;4.30;;
68178;SDS011;69812;42.632;23.440;2023-07-09T04:41:09;6.47;;;4.47;;
68178;SDS011;69812;42.632;23.440;2023-07-09T04:43:39;5.32;;;4.50;;
68178;SDS011;69812;42.632;23.440;2023-07-09T04:46:04;5.72;;;4.22;;
68178;SDS011;69812;42.632;23.440;2023-07-09T04:48:29;5.15;;;4.25;;
68178;SDS011;69812;42.632;23.440;2023-07-09T04:50:57;7.55;;;4.63;;
68178;SDS011;69812;42.632;23.440;2023-07-09T04:53:24;7.10;;;4.40;;
68178;SDS011;69812;42.632;23.440;2023-07-09T04:55:52;5.10;;;4.28;;
68178;SDS011;69812;42.632;23.440;2023-07-09T04:58:18;5.28;;;4.75;;
68178;SDS011;69812;42.632;23.440;2023-07-09T05:01:01;6.70;;;4.60;;
68178;SDS011;69812;42.632;23.440;2023-07-09T05:03:29;8.68;;;5.00;;
68178;SDS011;69812;42.632;23.440;2023-07-09T05:05:59;9.02;;;4.72;;
68178;SDS011;69812;42.632;23.440;2023-07-09T05:08:24;6.93;;;4.80;;
68178;SDS011;69812;42.632;23.440;2023-07-09T05:10:59;13.27;;;4.72;;
68178;SDS011;69812;42.632;23.440;2023-07-09T05:13:25;7.57;;;4.90;;
68178;SDS011;69812;42.632;23.440;2023-07-09T05:15:53;10.10;;;5.15;;
68178;SDS011;69812;42.632;23.440;2023-07-09T05:18:18;8.18;;;5.20;;
68178;SDS011;69812;42.632;23.440;2023-07-09T05:20:45;6.65;;;5.20;;
68178;SDS011;69812;42.632;23.440;2023-07-09T05:23:15;6.95;;;4.68;;
68178;SDS011;69812;42.632;23.440;2023-07-09T05:25:41;10.27;;;4.68;;
68178;SDS011;69812;42.632;23.440;2023-07-09T05:28:06;8.05;;;5.05;;
68178;SDS011;69812;42.632;23.440;2023-07-09T05:30:32;10.93;;;5.47;;
68178;SDS011;69812;42.632;23.440;2023-07-09T05:32:57;7.88;;;4.47;;
68178;SDS011;69812;42.632;23.440;2023-07-09T05:35:23;7.38;;;4.72;;
68178;SDS011;69812;42.632;23.440;2023-07-09T05:37:50;6.57;;;4.78;;
68178;SDS011;69812;42.632;23.440;2023-07-09T05:40:16;7.13;;;4.45;;
68178;SDS011;69812;42.632;23.440;2023-07-09T05:42:41;8.85;;;5.22;;
68178;SDS011;69812;42.632;23.440;2023-07-09T05:45:07;9.98;;;4.53;;
68178;SDS011;69812;42.632;23.440;2023-07-09T05:47:35;6.38;;;4.38;;
68178;SDS011;69812;42.632;23.440;2023-07-09T05:50:01;7.32;;;4.35;;
68178;SDS011;69812;42.632;23.440;2023-07-09T05:52:27;7.10;;;4.50;;
68178;SDS011;69812;42.632;23.440;2023-07-09T05:54:55;9.15;;;4.85;;
68178;SDS011;69812;42.632;23.440;2023-07-09T05:57:21;7.05;;;4.80;;
68178;SDS011;69812;42.632;23.440;2023-07-09T05:59:47;8.38;;;4.35;;
68178;SDS011;69812;42.632;23.440;2023-07-09T06:02:13;6.75;;;4.75;;
68178;SDS011;69812;42.632;23.440;2023-07-09T06:04:40;7.55;;;5.05;;
68178;SDS011;69812;42.632;23.440;2023-07-09T06:07:08;9.10;;;5.22;;
68178;SDS011;69812;42.632;23.440;2023-07-09T06:09:34;5.97;;;5.03;;
68178;SDS011;69812;42.632;23.440;2023-07-09T06:12:03;6.53;;;4.90;;
68178;SDS011;69812;42.632;23.440;2023-07-09T06:14:30;7.10;;;4.75;;
68178;SDS011;69812;42.632;23.440;2023-07-09T06:16:57;7.53;;;4.72;;
68178;SDS011;69812;42.632;23.440;2023-07-09T06:19:25;7.10;;;5.05;;
68178;SDS011;69812;42.632;23.440;2023-07-09T06:21:51;5.88;;;4.45;;
68178;SDS011;69812;42.632;23.440;2023-07-09T06:24:17;9.70;;;5.32;;
68178;SDS011;69812;42.632;23.440;2023-07-09T06:26:45;6.15;;;5.00;;
68178;SDS011;69812;42.632;23.440;2023-07-09T06:29:13;6.25;;;4.60;;
68178;SDS011;69812;42.632;23.440;2023-07-09T06:31:38;7.82;;;4.80;;
68178;SDS011;69812;42.632;23.440;2023-07-09T06:34:05;6.25;;;4.43;;
68178;SDS011;69812;42.632;23.440;2023-07-09T06:36:32;6.05;;;3.63;;
68178;SDS011;69812;42.632;23.440;2023-07-09T06:38:58;6.57;;;3.95;;
68178;SDS011;69812;42.632;23.440;2023-07-09T06:41:26;7.00;;;3.80;;
68178;SDS011;69812;42.632;23.440;2023-07-09T06:43:52;6.95;;;3.50;;
68178;SDS011;69812;42.632;23.440;2023-07-09T06:46:18;6.30;;;3.75;;
68178;SDS011;69812;42.632;23.440;2023-07-09T06:48:46;5.75;;;3.85;;
68178;SDS011;69812;42.632;23.440;2023-07-09T06:51:11;6.13;;;3.58;;
68178;SDS011;69812;42.632;23.440;2023-07-09T06:53:40;5.43;;;3.20;;
68178;SDS011;69812;42.632;23.440;2023-07-09T06:56:05;5.03;;;3.67;;
68178;SDS011;69812;42.632;23.440;2023-07-09T06:58:36;5.88;;;3.83;;
68178;SDS011;69812;42.632;23.440;2023-07-09T07:01:02;8.07;;;3.95;;
68178;SDS011;69812;42.632;23.440;2023-07-09T07:03:29;5.80;;;3.30;;
68178;SDS011;69812;42.632;23.440;2023-07-09T07:05:55;5.93;;;3.63;;
68178;SDS011;69812;42.632;23.440;2023-07-09T07:08:22;5.38;;;3.33;;
68178;SDS011;69812;42.632;23.440;2023-07-09T07:10:57;5.38;;;3.33;;
68178;SDS011;69812;42.632;23.440;2023-07-09T07:13:30;5.95;;;3.70;;
68178;SDS011;69812;42.632;23.440;2023-07-09T07:16:00;6.15;;;3.45;;
68178;SDS011;69812;42.632;23.440;2023-07-09T07:18:48;5.70;;;3.45;;
68178;SDS011;69812;42.632;23.440;2023-07-09T07:21:23;4.20;;;3.33;;
68178;SDS011;69812;42.632;23.440;2023-07-09T07:23:48;6.45;;;3.45;;
68178;SDS011;69812;42.632;23.440;2023-07-09T07:26:14;5.65;;;3.53;;
68178;SDS011;69812;42.632;23.440;2023-07-09T07:28:47;4.65;;;3.35;;
68178;SDS011;69812;42.632;23.440;2023-07-09T07:31:13;7.15;;;3.75;;
68178;SDS011;69812;42.632;23.440;2023-07-09T07:33:40;3.92;;;3.03;;
68178;SDS011;69812;42.632;23.440;2023-07-09T07:36:07;4.45;;;3.38;;
68178;SDS011;69812;42.632;23.440;2023-07-09T07:38:33;7.18;;;3.65;;
68178;SDS011;69812;42.632;23.440;2023-07-09T07:41:00;5.65;;;3.25;;
68178;SDS011;69812;42.632;23.440;2023-07-09T07:43:26;5.90;;;3.40;;
68178;SDS011;69812;42.632;23.440;2023-07-09T07:45:51;5.57;;;3.42;;
68178;SDS011;69812;42.632;23.440;2023-07-09T07:48:19;4.60;;;3.65;;
68178;SDS011;69812;42.632;23.440;2023-07-09T07:50:45;5.25;;;3.70;;
68178;SDS011;69812;42.632;23.440;2023-07-09T07:53:14;5.55;;;3.60;;
68178;SDS011;69812;42.632;23.440;2023-07-09T07:55:42;3.67;;;3.30;;
68178;SDS011;69812;42.632;23.440;2023-07-09T07:58:11;5.60;;;3.90;;
68178;SDS011;69812;42.632;23.440;2023-07-09T08:00:38;4.45;;;3.42;;
68178;SDS011;69812;42.632;23.440;2023-07-09T08:03:13;6.13;;;3.65;;
68178;SDS011;69812;42.632;23.440;2023-07-09T08:05:41;4.97;;;3.55;;
68178;SDS011;69812;42.632;23.440;2023-07-09T08:08:15;4.53;;;3.63;;
68178;SDS011;69812;42.632;23.440;2023-07-09T08:10:41;6.00;;;3.58;;
68178;SDS011;69812;42.632;23.440;2023-07-09T08:13:06;4.43;;;3.35;;
68178;SDS011;69812;42.632;23.440;2023-07-09T08:15:32;5.88;;;3.70;;
68178;SDS011;69812;42.632;23.440;2023-07-09T08:17:57;5.40;;;3.55;;
68178;SDS011;69812;42.632;23.440;2023-07-09T08:20:24;5.07;;;3.38;;
68178;SDS011;69812;42.632;23.440;2023-07-09T08:22:53;5.32;;;3.88;;
68178;SDS011;69812;42.632;23.440;2023-07-09T08:25:20;7.22;;;3.72;;
68178;SDS011;69812;42.632;23.440;2023-07-09T08:27:46;5.47;;;3.30;;
68178;SDS011;69812;42.632;23.440;2023-07-09T08:30:11;8.15;;;3.65;;
68178;SDS011;69812;42.632;23.440;2023-07-09T08:32:39;4.13;;;3.13;;
68178;SDS011;69812;42.632;23.440;2023-07-09T08:35:06;6.30;;;3.60;;
68178;SDS011;69812;42.632;23.440;2023-07-09T08:37:35;5.57;;;3.47;;
68178;SDS011;69812;42.632;23.440;2023-07-09T08:40:00;4.50;;;3.58;;
68178;SDS011;69812;42.632;23.440;2023-07-09T08:42:35;4.50;;;3.75;;
68178;SDS011;69812;42.632;23.440;2023-07-09T08:45:29;4.90;;;3.47;;
68178;SDS011;69812;42.632;23.440;2023-07-09T08:48:10;4.82;;;3.65;;
68178;SDS011;69812;42.632;23.440;2023-07-09T08:50:43;4.35;;;3.67;;
68178;SDS011;69812;42.632;23.440;2023-07-09T08:53:18;6.40;;;3.70;;
68178;SDS011;69812;42.632;23.440;2023-07-09T08:55:50;6.68;;;3.85;;
68178;SDS011;69812;42.632;23.440;2023-07-09T08:58:28;5.05;;;3.40;;
68178;SDS011;69812;42.632;23.440;2023-07-09T09:00:59;4.40;;;3.70;;
68178;SDS011;69812;42.632;23.440;2023-07-09T09:06:15;4.40;;;3.53;;
68178;SDS011;69812;42.632;23.440;2023-07-09T09:08:57;5.03;;;3.67;;
68178;SDS011;69812;42.632;23.440;2023-07-09T09:11:34;5.82;;;3.70;;
68178;SDS011;69812;42.632;23.440;2023-07-09T09:14:06;6.32;;;3.85;;
68178;SDS011;69812;42.632;23.440;2023-07-09T09:16:46;7.20;;;3.80;;
68178;SDS011;69812;42.632;23.440;2023-07-09T09:19:25;6.45;;;3.97;;
68178;SDS011;69812;42.632;23.440;2023-07-09T09:22:02;8.75;;;4.75;;
68178;SDS011;69812;42.632;23.440;2023-07-09T09:24:37;8.80;;;4.55;;
68178;SDS011;69812;42.632;23.440;2023-07-09T09:27:15;6.28;;;3.92;;
68178;SDS011;69812;42.632;23.440;2023-07-09T09:29:40;6.63;;;3.97;;
68178;SDS011;69812;42.632;23.440;2023-07-09T09:32:42;5.63;;;3.72;;
68178;SDS011;69812;42.632;23.440;2023-07-09T09:35:13;5.90;;;3.85;;
68178;SDS011;69812;42.632;23.440;2023-07-09T09:37:54;6.30;;;3.80;;
68178;SDS011;69812;42.632;23.440;2023-07-09T09:40:21;5.55;;;3.88;;
68178;SDS011;69812;42.632;23.440;2023-07-09T09:42:51;5.68;;;4.03;;
68178;SDS011;69812;42.632;23.440;2023-07-09T09:45:26;5.38;;;3.63;;
68178;SDS011;69812;42.632;23.440;2023-07-09T09:48:02;6.03;;;3.75;;
68178;SDS011;69812;42.632;23.440;2023-07-09T09:50:46;6.97;;;3.75;;
68178;SDS011;69812;42.632;23.440;2023-07-09T09:53:22;5.18;;;3.53;;
68178;SDS011;69812;42.632;23.440;2023-07-09T09:55:53;6.22;;;3.90;;
68178;SDS011;69812;42.632;23.440;2023-07-09T09:58:27;5.18;;;3.40;;
68178;SDS011;69812;42.632;23.440;2023-07-09T10:00:56;5.35;;;3.90;;
68178;SDS011;69812;42.632;23.440;2023-07-09T10:03:33;6.07;;;3.50;;
68178;SDS011;69812;42.632;23.440;2023-07-09T10:06:20;5.60;;;3.50;;
68178;SDS011;69812;42.632;23.440;2023-07-09T10:13:52;6.35;;;3.97;;
68178;SDS011;69812;42.632;23.440;2023-07-09T10:16:25;5.07;;;4.15;;
68178;SDS011;69812;42.632;23.440;2023-07-09T10:30:32;4.68;;;3.40;;
68178;SDS011;69812;42.632;23.440;2023-07-09T10:38:55;5.38;;;3.72;;
68178;SDS011;69812;42.632;23.440;2023-07-09T10:41:28;5.38;;;3.67;;
68178;SDS011;69812;42.632;23.440;2023-07-09T10:44:11;5.35;;;3.47;;
68178;SDS011;69812;42.632;23.440;2023-07-09T10:46:55;4.95;;;3.72;;
68178;SDS011;69812;42.632;23.440;2023-07-09T10:49:37;7.15;;;3.75;;
68178;SDS011;69812;42.632;23.440;2023-07-09T10:52:18;4.70;;;3.33;;
68178;SDS011;69812;42.632;23.440;2023-07-09T11:00:37;6.93;;;3.80;;
68178;SDS011;69812;42.632;23.440;2023-07-09T11:03:18;7.32;;;3.55;;
68178;SDS011;69812;42.632;23.440;2023-07-09T11:05:49;5.00;;;3.50;;
68178;SDS011;69812;42.632;23.440;2023-07-09T11:08:20;4.50;;;3.47;;
68178;SDS011;69812;42.632;23.440;2023-07-09T11:11:02;5.22;;;3.30;;
68178;SDS011;69812;42.632;23.440;2023-07-09T11:13:49;8.88;;;3.08;;
68178;SDS011;69812;42.632;23.440;2023-07-09T11:16:32;8.50;;;3.42;;
68178;SDS011;69812;42.632;23.440;2023-07-09T11:22:13;6.43;;;3.15;;
68178;SDS011;69812;42.632;23.440;2023-07-09T11:24:52;5.22;;;3.15;;
68178;SDS011;69812;42.632;23.440;2023-07-09T11:27:31;4.30;;;3.20;;
68178;SDS011;69812;42.632;23.440;2023-07-09T11:30:00;4.40;;;3.08;;
68178;SDS011;69812;42.632;23.440;2023-07-09T11:35:22;6.40;;;3.22;;
68178;SDS011;69812;42.632;23.440;2023-07-09T11:37:52;4.55;;;3.40;;
68178;SDS011;69812;42.632;23.440;2023-07-09T11:40:44;6.65;;;2.75;;
68178;SDS011;69812;42.632;23.440;2023-07-09T11:43:31;5.72;;;3.55;;
68178;SDS011;69812;42.632;23.440;2023-07-09T11:46:11;4.45;;;2.95;;
68178;SDS011;69812;42.632;23.440;2023-07-09T11:48:44;6.20;;;3.10;;
68178;SDS011;69812;42.632;23.440;2023-07-09T11:51:45;6.28;;;3.10;;
68178;SDS011;69812;42.632;23.440;2023-07-09T11:54:15;5.35;;;3.13;;
68178;SDS011;69812;42.632;23.440;2023-07-09T11:56:57;5.78;;;2.90;;
68178;SDS011;69812;42.632;23.440;2023-07-09T11:59:28;4.32;;;3.10;;
68178;SDS011;69812;42.632;23.440;2023-07-09T12:01:54;4.65;;;2.88;;
68178;SDS011;69812;42.632;23.440;2023-07-09T12:04:32;5.13;;;3.00;;
68178;SDS011;69812;42.632;23.440;2023-07-09T12:07:05;5.47;;;2.95;;
68178;SDS011;69812;42.632;23.440;2023-07-09T12:09:37;5.03;;;3.17;;
68178;SDS011;69812;42.632;23.440;2023-07-09T12:12:17;4.05;;;3.10;;
68178;SDS011;69812;42.632;23.440;2023-07-09T12:14:46;3.63;;;2.80;;
68178;SDS011;69812;42.632;23.440;2023-07-09T12:17:12;6.90;;;3.15;;
68178;SDS011;69812;42.632;23.440;2023-07-09T12:19:37;4.90;;;3.47;;
68178;SDS011;69812;42.632;23.440;2023-07-09T12:24:38;4.53;;;3.13;;
68178;SDS011;69812;42.632;23.440;2023-07-09T12:27:26;6.25;;;3.08;;
68178;SDS011;69812;42.632;23.440;2023-07-09T12:30:09;4.50;;;3.13;;
68178;SDS011;69812;42.632;23.440;2023-07-09T12:32:48;5.15;;;3.13;;
68178;SDS011;69812;42.632;23.440;2023-07-09T12:35:19;5.63;;;3.03;;
68178;SDS011;69812;42.632;23.440;2023-07-09T12:37:50;5.43;;;3.00;;
68178;SDS011;69812;42.632;23.440;2023-07-09T12:40:27;4.18;;;2.90;;
68178;SDS011;69812;42.632;23.440;2023-07-09T12:43:02;4.07;;;3.08;;
68178;SDS011;69812;42.632;23.440;2023-07-09T12:45:29;4.60;;;3.00;;
68178;SDS011;69812;42.632;23.440;2023-07-09T12:48:02;3.92;;;2.92;;
68178;SDS011;69812;42.632;23.440;2023-07-09T12:50:31;5.90;;;3.08;;
68178;SDS011;69812;42.632;23.440;2023-07-09T12:53:11;4.45;;;3.00;;
68178;SDS011;69812;42.632;23.440;2023-07-09T12:55:40;7.65;;;3.10;;
68178;SDS011;69812;42.632;23.440;2023-07-09T13:01:31;5.95;;;3.05;;
68178;SDS011;69812;42.632;23.440;2023-07-09T13:04:04;5.22;;;3.08;;
68178;SDS011;69812;42.632;23.440;2023-07-09T13:06:34;6.15;;;3.33;;
68178;SDS011;69812;42.632;23.440;2023-07-09T13:09:01;4.15;;;3.00;;
68178;SDS011;69812;42.632;23.440;2023-07-09T13:11:49;4.13;;;3.03;;
68178;SDS011;69812;42.632;23.440;2023-07-09T13:14:22;5.28;;;3.33;;
68178;SDS011;69812;42.632;23.440;2023-07-09T13:17:08;4.25;;;3.03;;
68178;SDS011;69812;42.632;23.440;2023-07-09T13:19:34;4.80;;;3.13;;
68178;SDS011;69812;42.632;23.440;2023-07-09T13:22:03;3.60;;;3.00;;
68178;SDS011;69812;42.632;23.440;2023-07-09T13:24:49;3.88;;;2.78;;
68178;SDS011;69812;42.632;23.440;2023-07-09T13:27:19;5.32;;;3.35;;
68178;SDS011;69812;42.632;23.440;2023-07-09T13:29:50;4.75;;;3.20;;
68178;SDS011;69812;42.632;23.440;2023-07-09T13:32:18;4.65;;;2.83;;
68178;SDS011;69812;42.632;23.440;2023-07-09T13:34:43;7.40;;;4.35;;
68178;SDS011;69812;42.632;23.440;2023-07-09T13:37:13;4.45;;;3.40;;
68178;SDS011;69812;42.632;23.440;2023-07-09T13:39:40;4.40;;;2.90;;
68178;SDS011;69812;42.632;23.440;2023-07-09T13:42:15;4.85;;;3.15;;
68178;SDS011;69812;42.632;23.440;2023-07-09T13:44:43;4.50;;;3.20;;
68178;SDS011;69812;42.632;23.440;2023-07-09T13:49:47;4.50;;;3.20;;
68178;SDS011;69812;42.632;23.440;2023-07-09T13:52:14;4.43;;;3.13;;
68178;SDS011;69812;42.632;23.440;2023-07-09T13:54:51;3.92;;;3.13;;
68178;SDS011;69812;42.632;23.440;2023-07-09T13:57:20;4.20;;;3.50;;
68178;SDS011;69812;42.632;23.440;2023-07-09T14:00:01;5.93;;;3.47;;
68178;SDS011;69812;42.632;23.440;2023-07-09T14:02:30;4.70;;;3.10;;
68178;SDS011;69812;42.632;23.440;2023-07-09T14:05:01;5.00;;;3.17;;
68178;SDS011;69812;42.632;23.440;2023-07-09T14:07:30;4.28;;;3.40;;
68178;SDS011;69812;42.632;23.440;2023-07-09T14:10:01;3.63;;;2.92;;
68178;SDS011;69812;42.632;23.440;2023-07-09T14:12:34;6.03;;;3.50;;
68178;SDS011;69812;42.632;23.440;2023-07-09T14:15:05;5.47;;;3.55;;
68178;SDS011;69812;42.632;23.440;2023-07-09T14:17:40;6.10;;;3.38;;
68178;SDS011;69812;42.632;23.440;2023-07-09T14:20:13;6.00;;;2.83;;
68178;SDS011;69812;42.632;23.440;2023-07-09T14:22:47;6.28;;;3.20;;
68178;SDS011;69812;42.632;23.440;2023-07-09T14:25:21;5.82;;;3.13;;
68178;SDS011;69812;42.632;23.440;2023-07-09T14:27:50;5.03;;;3.38;;
68178;SDS011;69812;42.632;23.440;2023-07-09T14:30:22;4.45;;;3.15;;
68178;SDS011;69812;42.632;23.440;2023-07-09T14:32:50;3.88;;;3.25;;
68178;SDS011;69812;42.632;23.440;2023-07-09T14:37:46;8.55;;;3.33;;
68178;SDS011;69812;42.632;23.440;2023-07-09T14:40:15;5.55;;;3.50;;
68178;SDS011;69812;42.632;23.440;2023-07-09T14:42:47;5.10;;;3.33;;
68178;SDS011;69812;42.632;23.440;2023-07-09T14:47:45;4.72;;;3.22;;
68178;SDS011;69812;42.632;23.440;2023-07-09T14:50:13;3.97;;;2.90;;
68178;SDS011;69812;42.632;23.440;2023-07-09T14:52:39;4.65;;;3.20;;
68178;SDS011;69812;42.632;23.440;2023-07-09T14:55:15;5.72;;;3.60;;
68178;SDS011;69812;42.632;23.440;2023-07-09T14:57:43;6.43;;;3.30;;
68178;SDS011;69812;42.632;23.440;2023-07-09T15:00:13;4.13;;;2.83;;
68178;SDS011;69812;42.632;23.440;2023-07-09T15:02:40;3.80;;;3.10;;
68178;SDS011;69812;42.632;23.440;2023-07-09T15:05:11;4.38;;;3.33;;
68178;SDS011;69812;42.632;23.440;2023-07-09T15:07:40;4.63;;;3.10;;
68178;SDS011;69812;42.632;23.440;2023-07-09T15:10:05;5.45;;;3.80;;
68178;SDS011;69812;42.632;23.440;2023-07-09T15:12:33;5.68;;;3.33;;
68178;SDS011;69812;42.632;23.440;2023-07-09T15:17:49;7.38;;;3.63;;
68178;SDS011;69812;42.632;23.440;2023-07-09T15:20:22;5.57;;;3.00;;
68178;SDS011;69812;42.632;23.440;2023-07-09T15:22:53;5.05;;;3.13;;
68178;SDS011;69812;42.632;23.440;2023-07-09T15:25:22;3.30;;;2.67;;
68178;SDS011;69812;42.632;23.440;2023-07-09T15:27:53;4.82;;;3.38;;
68178;SDS011;69812;42.632;23.440;2023-07-09T15:30:23;4.75;;;2.80;;
68178;SDS011;69812;42.632;23.440;2023-07-09T15:32:54;4.40;;;3.20;;
68178;SDS011;69812;42.632;23.440;2023-07-09T15:35:21;6.13;;;3.20;;
68178;SDS011;69812;42.632;23.440;2023-07-09T15:37:47;4.38;;;3.17;;
68178;SDS011;69812;42.632;23.440;2023-07-09T15:40:19;4.75;;;3.55;;
68178;SDS011;69812;42.632;23.440;2023-07-09T15:42:48;4.75;;;3.15;;
68178;SDS011;69812;42.632;23.440;2023-07-09T15:45:18;5.78;;;3.38;;
68178;SDS011;69812;42.632;23.440;2023-07-09T15:47:46;6.13;;;3.20;;
68178;SDS011;69812;42.632;23.440;2023-07-09T15:50:16;5.07;;;3.10;;
68178;SDS011;69812;42.632;23.440;2023-07-09T15:52:47;5.18;;;2.97;;
68178;SDS011;69812;42.632;23.440;2023-07-09T15:55:16;5.28;;;3.60;;